Time;durP1;ratioP1;P1;durP2;ratioP2;P2;SDS_P1;SDS_P2;PMS_P1;PMS_P2;Temp;Humidity;BMP_temperature;BMP_pressure;BME280_temperature;BME280_humidity;BME280_pressure;Samples;Min_cycle;Max_cycle;Signal;HPM_P1;HPM_P2
2021/06/19 00:01:40;;;;;;;11.73;3.23;;;;;;;;;;5049653;28;20036;-68
2021/06/19 00:04:05;;;;;;;7.05;3.05;;;;;;;;;;5049548;28;20269;-68
2021/06/19 00:06:30;;;;;;;12.20;3.33;;;;;;;;;;5050485;28;20020;-69
2021/06/19 00:08:55;;;;;;;8.00;2.67;;;;;;;;;;5047498;28;20040;-67
2021/06/19 00:11:21;;;;;;;13.98;2.88;;;;;;;;;;5050782;28;20283;-69
2021/06/19 00:13:46;;;;;;;8.88;3.20;;;;;;;;;;5050242;28;20028;-68
2021/06/19 00:16:11;;;;;;;7.03;2.63;;;;;;;;;;5049176;28;20016;-68
2021/06/19 00:18:37;;;;;;;9.63;3.00;;;;;;;;;;5050950;28;20260;-67
2021/06/19 00:21:02;;;;;;;14.63;3.90;;;;;;;;;;5050791;28;20366;-67
2021/06/19 00:23:28;;;;;;;9.05;3.17;;;;;;;;;;5049868;28;20298;-68
2021/06/19 00:25:53;;;;;;;10.25;3.08;;;;;;;;;;5049820;28;20124;-67
2021/06/19 00:28:18;;;;;;;14.87;3.80;;;;;;;;;;5050415;28;20009;-67
2021/06/19 00:30:44;;;;;;;10.25;3.85;;;;;;;;;;5049682;28;20298;-68
2021/06/19 00:33:09;;;;;;;11.45;3.03;;;;;;;;;;5048648;28;20060;-68
2021/06/19 00:35:34;;;;;;;12.27;4.03;;;;;;;;;;5049139;28;20463;-67
2021/06/19 00:38:00;;;;;;;8.98;3.45;;;;;;;;;;5032602;28;20452;-68
2021/06/19 00:40:25;;;;;;;9.57;3.42;;;;;;;;;;5049647;28;20037;-67
2021/06/19 00:42:58;;;;;;;10.40;3.13;;;;;;;;;;5049329;28;20028;-67
2021/06/19 00:45:24;;;;;;;10.27;3.17;;;;;;;;;;5048173;28;20268;-67
2021/06/19 00:47:49;;;;;;;7.43;2.92;;;;;;;;;;5047050;28;20025;-68
2021/06/19 00:50:15;;;;;;;10.50;3.23;;;;;;;;;;5049710;28;20544;-68
2021/06/19 00:52:40;;;;;;;13.43;3.35;;;;;;;;;;5049574;28;20755;-68
2021/06/19 00:55:06;;;;;;;11.20;3.33;;;;;;;;;;5048739;28;20039;-67
2021/06/19 00:57:31;;;;;;;11.10;3.15;;;;;;;;;;5050336;28;20421;-67
2021/06/19 00:59:58;;;;;;;11.45;3.00;;;;;;;;;;5048964;28;20031;-68
2021/06/19 01:02:23;;;;;;;16.40;3.08;;;;;;;;;;5049206;28;20083;-68
2021/06/19 01:04:49;;;;;;;8.60;2.63;;;;;;;;;;5048877;28;20298;-67
2021/06/19 01:07:14;;;;;;;10.33;2.03;;;;;;;;;;5031893;28;20029;-67
2021/06/19 01:09:39;;;;;;;6.27;2.33;;;;;;;;;;5049887;28;20302;-68
2021/06/19 01:12:05;;;;;;;8.47;2.37;;;;;;;;;;5048684;28;20394;-67
2021/06/19 01:14:30;;;;;;;4.60;2.22;;;;;;;;;;5048755;28;20024;-68
2021/06/19 01:16:55;;;;;;;10.15;2.63;;;;;;;;;;5048928;28;20013;-67
2021/06/19 01:19:20;;;;;;;4.88;2.05;;;;;;;;;;5049885;28;20605;-67
2021/06/19 01:21:50;;;;;;;14.00;2.80;;;;;;;;;;5049432;28;20029;-68
2021/06/19 01:24:15;;;;;;;3.70;1.92;;;;;;;;;;5048930;28;20029;-67
2021/06/19 01:26:41;;;;;;;6.90;2.30;;;;;;;;;;5049296;28;20036;-68
2021/06/19 01:29:07;;;;;;;3.95;1.95;;;;;;;;;;5049088;28;20471;-68
2021/06/19 01:31:32;;;;;;;5.50;2.30;;;;;;;;;;5048846;28;20104;-67
2021/06/19 01:33:58;;;;;;;11.90;2.72;;;;;;;;;;5048721;28;20803;-67
2021/06/19 01:36:23;;;;;;;7.28;2.40;;;;;;;;;;5048924;28;20021;-68
2021/06/19 01:38:51;;;;;;;9.02;1.98;;;;;;;;;;5048990;28;20024;-69
2021/06/19 01:41:17;;;;;;;10.57;2.30;;;;;;;;;;5047497;28;20051;-68
2021/06/19 01:43:43;;;;;;;7.25;2.22;;;;;;;;;;5049736;28;20457;-68
2021/06/19 01:46:09;;;;;;;5.55;2.30;;;;;;;;;;5048784;28;20033;-68
2021/06/19 01:48:34;;;;;;;6.80;2.75;;;;;;;;;;5048813;28;20024;-68
2021/06/19 01:50:59;;;;;;;5.87;2.67;;;;;;;;;;5048882;28;20017;-68
2021/06/19 01:53:24;;;;;;;4.57;2.17;;;;;;;;;;5048915;28;20328;-67
2021/06/19 01:55:50;;;;;;;8.98;2.30;;;;;;;;;;5048634;28;20028;-68
2021/06/19 01:58:15;;;;;;;9.17;2.47;;;;;;;;;;5051201;28;20045;-67
2021/06/19 02:00:40;;;;;;;13.33;2.30;;;;;;;;;;5050733;28;20013;-67
2021/06/19 02:03:06;;;;;;;8.88;3.10;;;;;;;;;;5052549;28;20271;-67
2021/06/19 02:05:31;;;;;;;5.80;2.30;;;;;;;;;;5050942;28;20047;-66
2021/06/19 02:07:58;;;;;;;12.50;2.97;;;;;;;;;;5052552;28;20017;-67
2021/06/19 02:10:28;;;;;;;7.13;2.80;;;;;;;;;;5052092;28;20029;-68
2021/06/19 02:12:54;;;;;;;4.25;2.33;;;;;;;;;;5053158;28;20084;-67
2021/06/19 02:15:20;;;;;;;8.27;2.58;;;;;;;;;;5052149;28;20100;-68
2021/06/19 02:17:45;;;;;;;12.02;2.42;;;;;;;;;;5053001;28;20518;-68
2021/06/19 02:20:11;;;;;;;6.67;3.00;;;;;;;;;;5051991;28;20132;-66
2021/06/19 02:22:37;;;;;;;6.32;3.42;;;;;;;;;;5052508;28;20267;-67
2021/06/19 02:25:04;;;;;;;4.13;2.35;;;;;;;;;;5051895;28;20017;-68
2021/06/19 02:27:29;;;;;;;8.10;1.95;;;;;;;;;;5052543;28;20025;-68
2021/06/19 02:29:54;;;;;;;7.23;2.23;;;;;;;;;;5040025;28;20065;-67
2021/06/19 02:32:19;;;;;;;13.82;2.33;;;;;;;;;;5050743;28;20028;-68
2021/06/19 02:34:45;;;;;;;13.45;2.20;;;;;;;;;;5051798;28;20507;-68
2021/06/19 02:37:10;;;;;;;11.20;2.17;;;;;;;;;;5051371;28;20013;-68
2021/06/19 02:39:35;;;;;;;5.30;1.88;;;;;;;;;;5051903;28;20071;-68
2021/06/19 02:42:00;;;;;;;17.50;2.13;;;;;;;;;;5052150;28;20079;-67
2021/06/19 02:44:26;;;;;;;6.43;2.13;;;;;;;;;;5052186;28;20271;-67
2021/06/19 02:46:51;;;;;;;9.10;2.33;;;;;;;;;;5052096;28;20259;-69
2021/06/19 02:49:16;;;;;;;4.13;1.90;;;;;;;;;;5050811;28;20471;-68
2021/06/19 02:51:41;;;;;;;9.00;2.30;;;;;;;;;;5051911;28;20270;-68
2021/06/19 02:54:07;;;;;;;4.43;1.83;;;;;;;;;;5051732;28;20267;-67
2021/06/19 02:56:32;;;;;;;3.78;2.20;;;;;;;;;;5033753;28;20048;-68
2021/06/19 02:58:57;;;;;;;6.37;2.50;;;;;;;;;;5051672;28;20083;-68
2021/06/19 03:01:23;;;;;;;9.35;2.20;;;;;;;;;;5051819;28;20745;-67
2021/06/19 03:03:48;;;;;;;5.75;2.17;;;;;;;;;;5033705;28;20037;-69
2021/06/19 03:06:14;;;;;;;10.38;2.35;;;;;;;;;;5050742;28;20029;-68
2021/06/19 03:08:39;;;;;;;4.57;2.00;;;;;;;;;;5051490;28;20344;-68
2021/06/19 03:11:04;;;;;;;5.50;2.40;;;;;;;;;;5043034;28;20024;-68
2021/06/19 03:13:30;;;;;;;4.75;2.17;;;;;;;;;;5048964;28;20661;-67
2021/06/19 03:15:55;;;;;;;4.07;2.45;;;;;;;;;;5046176;28;20010;-69
2021/06/19 03:18:20;;;;;;;7.77;2.03;;;;;;;;;;5050033;28;20025;-68
2021/06/19 03:20:45;;;;;;;5.73;2.17;;;;;;;;;;5038533;28;20268;-68
2021/06/19 03:23:10;;;;;;;5.83;1.97;;;;;;;;;;5048429;28;20263;-67
2021/06/19 03:25:37;;;;;;;8.07;2.17;;;;;;;;;;5050754;28;20462;-67
2021/06/19 03:28:04;;;;;;;4.57;2.05;;;;;;;;;;5040585;28;20259;-68
2021/06/19 03:30:30;;;;;;;9.07;2.22;;;;;;;;;;5051602;28;20029;-68
2021/06/19 03:32:55;;;;;;;5.57;1.88;;;;;;;;;;5050727;28;20532;-68
2021/06/19 03:35:20;;;;;;;4.93;1.98;;;;;;;;;;5049609;28;20025;-68
2021/06/19 03:37:46;;;;;;;5.93;1.70;;;;;;;;;;5050802;28;20013;-68
2021/06/19 03:40:12;;;;;;;5.82;2.13;;;;;;;;;;5051299;28;20024;-68
2021/06/19 03:42:39;;;;;;;2.47;1.77;;;;;;;;;;5051119;28;20100;-67
2021/06/19 03:45:05;;;;;;;2.67;1.80;;;;;;;;;;5050860;28;20124;-68
2021/06/19 03:47:30;;;;;;;3.30;1.85;;;;;;;;;;5049293;28;20111;-68
2021/06/19 03:49:55;;;;;;;6.30;1.70;;;;;;;;;;5051205;28;20475;-67
2021/06/19 03:52:20;;;;;;;4.13;1.60;;;;;;;;;;5050820;28;20268;-68
2021/06/19 03:54:45;;;;;;;2.72;1.90;;;;;;;;;;5049749;28;20263;-68
2021/06/19 03:57:20;;;;;;;3.67;1.65;;;;;;;;;;5049850;28;20071;-68
2021/06/19 03:59:47;;;;;;;6.47;1.40;;;;;;;;;;5051347;28;20410;-68
2021/06/19 04:02:12;;;;;;;6.05;1.75;;;;;;;;;;5050814;28;20021;-68
2021/06/19 04:04:37;;;;;;;2.97;1.70;;;;;;;;;;5049783;28;20032;-67
2021/06/19 04:07:03;;;;;;;4.13;1.40;;;;;;;;;;5048981;28;20037;-67
2021/06/19 04:09:28;;;;;;;2.75;1.35;;;;;;;;;;5050439;28;20036;-67
2021/06/19 04:11:53;;;;;;;2.40;1.08;;;;;;;;;;5050770;28;20070;-67
2021/06/19 04:14:18;;;;;;;3.43;1.50;;;;;;;;;;5050487;28;20100;-67
2021/06/19 04:16:44;;;;;;;3.05;1.30;;;;;;;;;;5049435;28;20260;-67
2021/06/19 04:19:09;;;;;;;1.38;1.08;;;;;;;;;;5038222;28;20044;-67
2021/06/19 04:21:34;;;;;;;2.00;1.30;;;;;;;;;;5045994;28;20072;-67
2021/06/19 04:23:59;;;;;;;3.28;1.48;;;;;;;;;;5036372;28;20017;-67
2021/06/19 04:26:24;;;;;;;8.70;1.40;;;;;;;;;;5042238;28;20037;-67
2021/06/19 04:28:49;;;;;;;9.87;1.33;;;;;;;;;;5042344;28;20550;-68
2021/06/19 04:31:15;;;;;;;1.90;0.97;;;;;;;;;;5043662;28;20863;-67
2021/06/19 04:33:40;;;;;;;3.87;1.10;;;;;;;;;;5042438;28;20071;-67
2021/06/19 04:36:07;;;;;;;2.13;1.17;;;;;;;;;;5047680;28;20286;-67
2021/06/19 04:38:33;;;;;;;1.85;0.88;;;;;;;;;;5049632;28;20112;-67
2021/06/19 04:41:02;;;;;;;5.60;1.30;;;;;;;;;;5049857;28;20095;-67
2021/06/19 04:43:32;;;;;;;2.00;0.90;;;;;;;;;;5031937;28;20035;-67
2021/06/19 04:45:57;;;;;;;11.00;1.65;;;;;;;;;;5048742;28;20028;-67
2021/06/19 04:48:22;;;;;;;5.00;1.00;;;;;;;;;;5045642;28;20025;-67
2021/06/19 04:50:48;;;;;;;2.42;0.90;;;;;;;;;;5045408;28;20024;-67
2021/06/19 04:53:14;;;;;;;7.95;1.52;;;;;;;;;;5048099;28;20021;-66
2021/06/19 04:55:39;;;;;;;3.85;1.92;;;;;;;;;;5047712;28;20035;-66
2021/06/19 04:58:04;;;;;;;2.13;0.90;;;;;;;;;;5047503;28;20078;-68
2021/06/19 05:00:30;;;;;;;3.92;1.23;;;;;;;;;;5047711;28;20116;-67
2021/06/19 05:02:56;;;;;;;3.75;2.55;;;;;;;;;;5047976;28;20367;-68
2021/06/19 05:05:23;;;;;;;3.35;2.40;;;;;;;;;;5064788;23;20037;-67
2021/06/19 05:07:48;;;;;;;8.80;6.47;;;;;;;;;;5056734;28;20013;-68
2021/06/19 05:10:13;;;;;;;9.60;4.68;;;;;;;;;;5064814;28;20078;-67
2021/06/19 05:12:42;;;;;;;7.63;5.22;;;;;;;;;;5058184;28;20147;-67
2021/06/19 05:15:08;;;;;;;3.55;2.17;;;;;;;;;;5026903;28;20549;-67
2021/06/19 05:17:33;;;;;;;3.05;1.65;;;;;;;;;;5042032;28;20124;-68
2021/06/19 05:19:59;;;;;;;2.90;1.40;;;;;;;;;;5048040;28;20025;-67
2021/06/19 05:22:24;;;;;;;2.65;1.40;;;;;;;;;;5049432;28;20059;-68
2021/06/19 05:24:50;;;;;;;3.88;1.45;;;;;;;;;;5049861;28;20013;-68
2021/06/19 05:27:15;;;;;;;4.22;1.25;;;;;;;;;;5049638;28;20106;-68
2021/06/19 05:29:40;;;;;;;3.25;1.27;;;;;;;;;;5049026;28;20028;-67
2021/06/19 05:32:06;;;;;;;3.40;1.33;;;;;;;;;;5048715;28;20028;-67
2021/06/19 05:34:31;;;;;;;4.10;1.25;;;;;;;;;;5047225;28;20021;-67
2021/06/19 05:36:56;;;;;;;2.47;1.10;;;;;;;;;;5053606;28;20017;-67
2021/06/19 05:39:21;;;;;;;2.40;1.40;;;;;;;;;;5053330;28;20259;-67
2021/06/19 05:41:47;;;;;;;5.23;1.43;;;;;;;;;;5053619;28;20321;-67
2021/06/19 05:44:12;;;;;;;1.53;1.03;;;;;;;;;;5035139;28;20307;-67
2021/06/19 05:46:38;;;;;;;4.20;1.83;;;;;;;;;;5052879;28;20316;-68
2021/06/19 05:49:03;;;;;;;2.13;1.38;;;;;;;;;;5053159;28;20703;-67
2021/06/19 05:51:28;;;;;;;3.50;1.30;;;;;;;;;;5052766;28;20017;-67
2021/06/19 05:53:54;;;;;;;1.52;0.80;;;;;;;;;;5053102;28;20067;-67
2021/06/19 05:56:19;;;;;;;3.37;1.20;;;;;;;;;;5051359;28;20017;-67
2021/06/19 05:58:44;;;;;;;2.30;1.05;;;;;;;;;;5047394;28;20097;-67
2021/06/19 06:01:10;;;;;;;1.13;0.60;;;;;;;;;;5052563;28;20021;-69
2021/06/19 06:03:35;;;;;;;3.13;0.93;;;;;;;;;;5052840;28;20329;-69
2021/06/19 06:06:00;;;;;;;3.88;0.98;;;;;;;;;;5052719;28;20349;-68
2021/06/19 06:08:25;;;;;;;3.93;0.70;;;;;;;;;;5046231;28;20070;-68
2021/06/19 06:10:51;;;;;;;1.48;0.93;;;;;;;;;;5048288;28;20302;-68
2021/06/19 06:13:16;;;;;;;3.85;1.30;;;;;;;;;;5049266;28;20013;-67
2021/06/19 06:15:41;;;;;;;8.33;0.90;;;;;;;;;;5051434;28;20062;-67
2021/06/19 06:18:06;;;;;;;2.58;1.10;;;;;;;;;;5052449;28;20291;-67
2021/06/19 06:20:31;;;;;;;1.85;1.00;;;;;;;;;;5051265;28;20028;-67
2021/06/19 06:22:57;;;;;;;2.77;1.47;;;;;;;;;;5048644;28;20025;-68
2021/06/19 06:25:22;;;;;;;1.43;0.70;;;;;;;;;;5051508;28;20271;-67
2021/06/19 06:27:47;;;;;;;6.45;1.15;;;;;;;;;;5052381;28;20280;-68
2021/06/19 06:30:13;;;;;;;2.93;1.07;;;;;;;;;;5049805;28;20099;-67
2021/06/19 06:32:38;;;;;;;2.25;0.90;;;;;;;;;;5033585;28;20032;-67
2021/06/19 06:35:05;;;;;;;4.45;1.00;;;;;;;;;;5052576;28;20028;-68
2021/06/19 06:37:30;;;;;;;2.55;1.38;;;;;;;;;;5053090;28;20353;-67
2021/06/19 06:39:55;;;;;;;2.30;1.10;;;;;;;;;;5051999;28;20032;-68
2021/06/19 06:42:20;;;;;;;3.23;0.93;;;;;;;;;;5050559;28;20075;-68
2021/06/19 06:44:47;;;;;;;6.40;1.40;;;;;;;;;;5051119;28;20747;-68
2021/06/19 06:47:12;;;;;;;3.42;1.10;;;;;;;;;;5027805;28;20275;-68
2021/06/19 06:49:37;;;;;;;6.83;1.20;;;;;;;;;;5040620;28;20029;-67
2021/06/19 06:52:02;;;;;;;6.53;1.00;;;;;;;;;;5051177;28;20262;-67
2021/06/19 06:54:28;;;;;;;1.20;0.82;;;;;;;;;;5036094;28;20665;-68
2021/06/19 06:56:53;;;;;;;2.67;0.85;;;;;;;;;;5037284;28;20437;-67
2021/06/19 06:59:18;;;;;;;3.33;1.10;;;;;;;;;;5040777;28;20088;-67
2021/06/19 07:01:43;;;;;;;4.67;1.40;;;;;;;;;;5032409;28;20121;-67
2021/06/19 07:04:09;;;;;;;9.53;1.80;;;;;;;;;;5051261;28;20355;-67
2021/06/19 07:06:34;;;;;;;8.97;1.53;;;;;;;;;;5047909;28;20282;-67
2021/06/19 07:08:59;;;;;;;6.77;1.43;;;;;;;;;;5051698;28;20267;-67
2021/06/19 07:11:24;;;;;;;7.23;1.70;;;;;;;;;;5052129;28;20024;-67
2021/06/19 07:13:50;;;;;;;3.47;1.23;;;;;;;;;;5052251;28;20610;-67
2021/06/19 07:16:15;;;;;;;6.90;1.60;;;;;;;;;;5024335;28;20033;-67
2021/06/19 07:18:40;;;;;;;5.37;1.90;;;;;;;;;;5047972;28;20021;-67
2021/06/19 07:21:05;;;;;;;3.93;1.60;;;;;;;;;;5040733;28;20104;-67
2021/06/19 07:23:31;;;;;;;8.32;3.03;;;;;;;;;;5031355;28;20252;-67
2021/06/19 07:25:56;;;;;;;2.90;1.30;;;;;;;;;;5031730;28;20017;-66
2021/06/19 07:28:22;;;;;;;9.63;1.50;;;;;;;;;;5044155;28;20386;-67
2021/06/19 07:30:47;;;;;;;4.80;1.35;;;;;;;;;;5051593;28;20079;-67
2021/06/19 07:33:12;;;;;;;3.63;1.25;;;;;;;;;;5051624;28;20017;-67
2021/06/19 07:35:37;;;;;;;6.60;1.50;;;;;;;;;;5050921;28;20092;-67
2021/06/19 07:38:03;;;;;;;2.95;1.10;;;;;;;;;;5050598;28;20024;-67
2021/06/19 07:40:28;;;;;;;4.53;1.20;;;;;;;;;;5051323;28;20032;-67
2021/06/19 07:42:53;;;;;;;4.97;1.45;;;;;;;;;;5051725;28;20442;-68
2021/06/19 07:45:18;;;;;;;4.43;1.60;;;;;;;;;;5051274;28;20104;-68
2021/06/19 07:47:44;;;;;;;10.10;1.80;;;;;;;;;;5050451;28;20025;-68
2021/06/19 07:50:09;;;;;;;5.88;1.52;;;;;;;;;;5051607;28;20032;-69
2021/06/19 07:52:34;;;;;;;5.75;2.25;;;;;;;;;;5051392;28;20536;-69
2021/06/19 07:54:59;;;;;;;8.53;2.53;;;;;;;;;;5051279;28;20475;-68
2021/06/19 07:57:25;;;;;;;5.50;1.33;;;;;;;;;;5050959;28;20768;-68
2021/06/19 07:59:50;;;;;;;5.53;1.00;;;;;;;;;;5051444;28;20707;-69
2021/06/19 08:02:15;;;;;;;8.60;2.20;;;;;;;;;;5051201;28;20284;-68
2021/06/19 08:04:40;;;;;;;6.90;1.58;;;;;;;;;;5050472;28;20469;-68
2021/06/19 08:07:05;;;;;;;4.30;1.47;;;;;;;;;;5050879;28;20024;-68
2021/06/19 08:09:31;;;;;;;2.63;1.20;;;;;;;;;;5050832;28;20341;-68
2021/06/19 08:11:57;;;;;;;4.25;1.70;;;;;;;;;;5051043;28;20255;-68
2021/06/19 08:14:22;;;;;;;4.70;1.52;;;;;;;;;;5050986;28;20100;-68
2021/06/19 08:16:50;;;;;;;3.65;1.45;;;;;;;;;;5031297;28;20025;-67
2021/06/19 08:19:16;;;;;;;2.53;1.20;;;;;;;;;;5050389;28;20051;-67
2021/06/19 08:21:41;;;;;;;3.28;1.05;;;;;;;;;;5049926;28;20021;-67
2021/06/19 08:24:07;;;;;;;4.00;1.73;;;;;;;;;;5032288;28;20513;-67
2021/06/19 08:26:35;;;;;;;3.67;1.30;;;;;;;;;;5049114;28;20102;-67
2021/06/19 08:29:00;;;;;;;4.03;1.23;;;;;;;;;;5050330;28;20032;-67
2021/06/19 08:31:26;;;;;;;4.63;1.77;;;;;;;;;;5045451;28;20411;-68
2021/06/19 08:33:51;;;;;;;4.00;1.50;;;;;;;;;;5043104;28;20075;-68
2021/06/19 08:36:16;;;;;;;8.63;1.77;;;;;;;;;;5028434;28;20021;-67
2021/06/19 08:38:42;;;;;;;4.43;1.30;;;;;;;;;;5038789;28;20718;-68
2021/06/19 08:41:08;;;;;;;2.38;1.35;;;;;;;;;;5051030;28;20029;-68
2021/06/19 08:43:37;;;;;;;5.82;1.50;;;;;;;;;;5050018;28;20595;-68
2021/06/19 08:46:03;;;;;;;2.55;1.48;;;;;;;;;;5045860;28;20021;-67
2021/06/19 08:48:28;;;;;;;3.30;1.65;;;;;;;;;;5040494;28;20026;-67
2021/06/19 08:50:53;;;;;;;4.67;1.73;;;;;;;;;;5030427;28;20021;-67
2021/06/19 08:53:19;;;;;;;3.23;1.30;;;;;;;;;;5030505;28;20259;-67
2021/06/19 08:55:45;;;;;;;6.70;1.88;;;;;;;;;;5048178;28;20262;-68
2021/06/19 08:58:10;;;;;;;7.03;1.85;;;;;;;;;;5050413;28;20022;-68
2021/06/19 09:00:35;;;;;;;3.37;1.80;;;;;;;;;;5049716;28;20025;-67
2021/06/19 09:03:00;;;;;;;3.67;1.80;;;;;;;;;;5050126;28;20259;-67
2021/06/19 09:05:29;;;;;;;4.30;2.00;;;;;;;;;;5046282;28;20044;-68
2021/06/19 09:07:56;;;;;;;4.43;2.03;;;;;;;;;;5053522;28;20267;-67
2021/06/19 09:10:21;;;;;;;4.07;1.70;;;;;;;;;;5050628;28;20021;-68
2021/06/19 09:13:00;;;;;;;2.23;1.30;;;;;;;;;;5056897;28;20378;-68
2021/06/19 09:15:26;;;;;;;5.10;1.52;;;;;;;;;;5050400;28;20409;-68
2021/06/19 09:18:10;;;;;;;7.38;1.60;;;;;;;;;;5054596;28;20020;-67
2021/06/19 09:20:49;;;;;;;7.30;1.67;;;;;;;;;;5036884;28;20172;-67
2021/06/19 09:23:15;;;;;;;7.38;2.22;;;;;;;;;;5056243;28;20433;-68
2021/06/19 09:25:40;;;;;;;3.08;1.58;;;;;;;;;;5049521;28;20021;-67
2021/06/19 09:28:07;;;;;;;5.90;1.40;;;;;;;;;;5054032;28;20020;-67
2021/06/19 09:30:32;;;;;;;2.33;1.30;;;;;;;;;;5056257;28;20287;-67
2021/06/19 09:32:59;;;;;;;3.05;1.40;;;;;;;;;;5055719;28;20463;-67
2021/06/19 09:35:31;;;;;;;8.60;1.77;;;;;;;;;;5055769;28;20485;-67
2021/06/19 09:37:57;;;;;;;6.35;1.50;;;;;;;;;;5056632;28;20025;-67
2021/06/19 09:40:25;;;;;;;4.88;1.20;;;;;;;;;;5056771;28;20021;-67
2021/06/19 09:42:50;;;;;;;2.63;1.30;;;;;;;;;;5055970;28;20031;-67
2021/06/19 09:45:22;;;;;;;6.07;1.10;;;;;;;;;;5056340;28;20095;-67
2021/06/19 09:47:48;;;;;;;4.35;0.90;;;;;;;;;;5053787;28;20096;-67
2021/06/19 09:50:13;;;;;;;2.38;0.80;;;;;;;;;;5049649;28;20031;-67
2021/06/19 09:52:39;;;;;;;1.65;0.90;;;;;;;;;;5053414;28;20017;-69
2021/06/19 09:55:09;;;;;;;5.65;1.80;;;;;;;;;;5055296;28;20039;-68
2021/06/19 09:57:38;;;;;;;2.95;1.17;;;;;;;;;;5052433;28;20123;-68
2021/06/19 10:00:04;;;;;;;3.85;1.40;;;;;;;;;;5049171;28;20540;-69
2021/06/19 10:02:30;;;;;;;5.68;1.50;;;;;;;;;;5046564;28;20033;-69
2021/06/19 10:04:56;;;;;;;17.73;2.60;;;;;;;;;;5044377;28;20079;-69
2021/06/19 10:07:22;;;;;;;1.60;1.00;;;;;;;;;;5049161;28;20481;-68
2021/06/19 10:09:49;;;;;;;2.38;1.00;;;;;;;;;;5050586;28;20063;-68
2021/06/19 10:12:16;;;;;;;0.98;0.88;;;;;;;;;;5052972;28;20021;-68
2021/06/19 10:14:42;;;;;;;2.47;1.10;;;;;;;;;;5050390;28;20031;-68
2021/06/19 10:17:07;;;;;;;5.63;1.13;;;;;;;;;;5043174;28;20374;-68
2021/06/19 10:19:33;;;;;;;4.57;0.80;;;;;;;;;;5044638;28;20772;-69
2021/06/19 10:21:58;;;;;;;1.80;0.98;;;;;;;;;;5040914;28;20032;-69
2021/06/19 10:24:24;;;;;;;5.40;1.10;;;;;;;;;;5047148;28;20029;-69
2021/06/19 10:26:50;;;;;;;7.88;0.90;;;;;;;;;;5048199;28;20020;-68
2021/06/19 10:29:15;;;;;;;7.35;1.10;;;;;;;;;;5048352;28;20155;-70
2021/06/19 10:31:45;;;;;;;6.10;1.15;;;;;;;;;;5049014;28;20088;-69
2021/06/19 10:34:10;;;;;;;;;;;;;;;;;;5048154;28;20108;-69
2021/06/19 10:36:37;;;;;;;16.88;3.33;;;;;;;;;;5047181;28;19999;-67
2021/06/19 10:39:02;;;;;;;4.72;1.45;;;;;;;;;;5044815;28;20021;-68
2021/06/19 10:41:47;;;;;;;9.27;1.58;;;;;;;;;;5048448;28;20074;-68
2021/06/19 10:44:12;;;;;;;1.85;1.10;;;;;;;;;;5052599;28;20136;-69
2021/06/19 10:46:38;;;;;;;2.42;1.00;;;;;;;;;;5050108;28;20032;-69
2021/06/19 10:49:19;;;;;;;6.30;1.38;;;;;;;;;;5046050;28;20244;-69
2021/06/19 10:51:44;;;;;;;7.95;1.20;;;;;;;;;;5048297;28;20024;-67
2021/06/19 10:54:14;;;;;;;2.13;0.90;;;;;;;;;;5051215;28;20033;-69
2021/06/19 10:56:52;;;;;;;1.63;1.45;;;;;;;;;;5049503;28;20064;-69
2021/06/19 10:59:23;;;;;;;3.88;1.55;;;;;;;;;;5037525;28;20025;-69
2021/06/19 11:01:49;;;;;;;2.05;1.02;;;;;;;;;;5047089;28;20074;-69
2021/06/19 11:04:33;;;;;;;3.40;1.00;;;;;;;;;;5047844;28;20104;-69
2021/06/19 11:06:59;;;;;;;2.55;1.02;;;;;;;;;;5066481;23;20433;-68
2021/06/19 11:09:40;;;;;;;6.33;1.57;;;;;;;;;;5040397;28;20044;-68
2021/06/19 11:12:26;;;;;;;2.80;1.52;;;;;;;;;;5053386;28;20017;-68
2021/06/19 11:14:52;;;;;;;1.95;1.17;;;;;;;;;;5037109;28;20643;-69
2021/06/19 11:17:17;;;;;;;2.47;1.17;;;;;;;;;;5066592;28;20028;-68
2021/06/19 11:19:49;;;;;;;1.55;0.77;;;;;;;;;;5069637;28;20477;-68
2021/06/19 11:22:28;;;;;;;1.75;0.90;;;;;;;;;;5070683;28;20024;-69
2021/06/19 11:25:12;;;;;;;15.03;3.37;;;;;;;;;;5069520;28;20435;-69
2021/06/19 11:27:52;;;;;;;2.42;1.08;;;;;;;;;;5053071;28;20041;-70
2021/06/19 11:30:33;;;;;;;1.77;0.88;;;;;;;;;;5060842;28;20024;-68
2021/06/19 11:33:16;;;;;;;3.20;1.23;;;;;;;;;;5067505;28;20025;-68
2021/06/19 11:36:04;;;;;;;2.20;1.10;;;;;;;;;;5063591;28;20017;-70
2021/06/19 11:38:43;;;;;;;2.35;1.10;;;;;;;;;;5051314;28;20051;-70
2021/06/19 11:41:09;;;;;;;1.73;1.07;;;;;;;;;;5069505;28;20103;-68
2021/06/19 11:43:34;;;;;;;3.92;1.10;;;;;;;;;;5070268;28;20286;-68
2021/06/19 11:46:00;;;;;;;2.73;1.03;;;;;;;;;;5050707;28;20029;-68
2021/06/19 11:48:25;;;;;;;2.45;1.10;;;;;;;;;;5068024;28;20051;-68
2021/06/19 11:50:51;;;;;;;2.17;1.20;;;;;;;;;;5068453;28;20016;-70
2021/06/19 11:53:22;;;;;;;1.97;1.30;;;;;;;;;;5070316;28;20038;-70
2021/06/19 11:55:47;;;;;;;4.05;1.17;;;;;;;;;;5063737;28;20013;-68
2021/06/19 11:58:13;;;;;;;3.67;1.20;;;;;;;;;;5060152;28;20498;-68
2021/06/19 12:00:54;;;;;;;3.57;1.30;;;;;;;;;;5063683;28;20028;-69
2021/06/19 12:03:25;;;;;;;2.15;1.13;;;;;;;;;;5068920;28;20024;-68
2021/06/19 12:05:50;;;;;;;3.33;1.10;;;;;;;;;;5054360;28;20450;-69
2021/06/19 12:08:25;;;;;;;2.75;1.45;;;;;;;;;;5055692;28;20029;-69
2021/06/19 12:10:50;;;;;;;5.55;1.38;;;;;;;;;;5061792;28;20419;-69
2021/06/19 12:13:15;;;;;;;2.77;1.20;;;;;;;;;;5063261;28;20103;-69
2021/06/19 12:15:40;;;;;;;1.37;1.00;;;;;;;;;;5064857;28;20343;-69
2021/06/19 12:18:15;;;;;;;1.97;1.03;;;;;;;;;;5051028;28;20021;-69
2021/06/19 12:20:41;;;;;;;5.60;1.33;;;;;;;;;;5050886;28;20262;-69
2021/06/19 12:23:13;;;;;;;5.13;1.43;;;;;;;;;;5057466;28;20016;-69
2021/06/19 12:25:38;;;;;;;2.60;1.17;;;;;;;;;;5067911;28;20271;-69
2021/06/19 12:28:03;;;;;;;2.83;1.27;;;;;;;;;;5064687;28;20031;-69
2021/06/19 12:30:29;;;;;;;4.20;1.23;;;;;;;;;;5058401;28;20344;-69
2021/06/19 12:32:54;;;;;;;2.95;1.33;;;;;;;;;;5062293;28;20489;-69
2021/06/19 12:35:20;;;;;;;2.70;1.30;;;;;;;;;;5056402;28;20017;-69
2021/06/19 12:37:50;;;;;;;8.63;1.65;;;;;;;;;;5032934;28;20563;-69
2021/06/19 12:40:15;;;;;;;9.90;1.30;;;;;;;;;;5068625;28;20024;-69
2021/06/19 12:42:46;;;;;;;4.00;1.60;;;;;;;;;;5066983;28;20020;-69
2021/06/19 12:45:18;;;;;;;6.38;1.58;;;;;;;;;;5058425;28;20040;-69
2021/06/19 12:47:44;;;;;;;3.13;1.30;;;;;;;;;;5043046;28;20387;-69
2021/06/19 12:50:14;;;;;;;6.25;1.52;;;;;;;;;;5061748;28;20700;-69
2021/06/19 12:52:58;;;;;;;2.33;1.30;;;;;;;;;;5052492;28;20340;-69
2021/06/19 12:55:24;;;;;;;1.83;1.10;;;;;;;;;;5060360;28;20032;-69
2021/06/19 12:58:09;;;;;;;3.05;1.30;;;;;;;;;;5049906;28;20054;-69
2021/06/19 13:00:35;;;;;;;3.65;1.15;;;;;;;;;;5065130;28;20848;-69
2021/06/19 13:03:00;;;;;;;5.65;1.60;;;;;;;;;;5067586;28;20020;-69
2021/06/19 13:05:25;;;;;;;6.00;1.47;;;;;;;;;;5054640;28;20039;-69
2021/06/19 13:08:07;;;;;;;3.97;1.23;;;;;;;;;;5059519;28;20017;-69
2021/06/19 13:10:33;;;;;;;6.28;1.20;;;;;;;;;;5061178;28;20074;-69
2021/06/19 13:12:58;;;;;;;4.20;1.53;;;;;;;;;;5066650;28;20016;-69
2021/06/19 13:15:25;;;;;;;5.13;1.35;;;;;;;;;;5066900;28;20259;-69
2021/06/19 13:17:50;;;;;;;2.63;1.30;;;;;;;;;;5062003;28;20012;-69
2021/06/19 13:20:34;;;;;;;6.18;1.40;;;;;;;;;;5053917;28;20028;-69
2021/06/19 13:23:07;;;;;;;2.92;1.30;;;;;;;;;;5055486;28;20028;-69
2021/06/19 13:25:50;;;;;;;5.68;2.13;;;;;;;;;;5063233;28;20024;-69
2021/06/19 13:28:18;;;;;;;3.63;1.83;;;;;;;;;;5061379;28;20033;-69
2021/06/19 13:30:43;;;;;;;3.15;1.55;;;;;;;;;;5066087;28;20032;-67
2021/06/19 13:33:08;;;;;;;8.63;1.85;;;;;;;;;;5062892;28;20021;-69
2021/06/19 13:35:47;;;;;;;3.25;1.63;;;;;;;;;;5050914;28;20016;-69
2021/06/19 13:38:12;;;;;;;7.13;1.63;;;;;;;;;;5055723;28;20048;-69
2021/06/19 13:40:38;;;;;;;4.55;1.63;;;;;;;;;;5067216;28;20009;-69
2021/06/19 13:43:03;;;;;;;2.70;1.43;;;;;;;;;;5055047;28;20110;-69
2021/06/19 13:45:28;;;;;;;4.83;1.40;;;;;;;;;;5061223;28;20031;-70
2021/06/19 13:47:53;;;;;;;3.57;1.50;;;;;;;;;;5067672;28;20282;-69
2021/06/19 13:50:18;;;;;;;3.57;1.67;;;;;;;;;;5068323;28;20096;-69
2021/06/19 13:52:45;;;;;;;5.53;2.30;;;;;;;;;;5056031;28;20024;-69
2021/06/19 13:55:11;;;;;;;4.13;1.40;;;;;;;;;;5070682;28;20008;-69
2021/06/19 13:57:36;;;;;;;3.92;1.40;;;;;;;;;;5060455;28;20032;-69
2021/06/19 14:00:02;;;;;;;2.53;1.67;;;;;;;;;;5065508;28;20028;-69
2021/06/19 14:02:28;;;;;;;3.45;1.60;;;;;;;;;;5069167;28;20029;-69
2021/06/19 14:04:53;;;;;;;3.67;2.10;;;;;;;;;;5073104;28;20029;-69
2021/06/19 14:07:20;;;;;;;3.27;2.00;;;;;;;;;;5072446;28;20282;-69
2021/06/19 14:09:45;;;;;;;3.85;1.40;;;;;;;;;;5069150;28;20310;-69
2021/06/19 14:12:10;;;;;;;4.80;1.52;;;;;;;;;;5070973;28;20028;-69
2021/06/19 14:14:36;;;;;;;8.57;1.95;;;;;;;;;;5063451;28;20028;-69
2021/06/19 14:17:02;;;;;;;3.30;2.15;;;;;;;;;;5061863;28;20013;-69
2021/06/19 14:19:27;;;;;;;5.43;1.88;;;;;;;;;;5057469;28;20032;-69
2021/06/19 14:21:53;;;;;;;2.88;1.52;;;;;;;;;;5072228;28;20020;-69
2021/06/19 14:24:21;;;;;;;4.38;1.60;;;;;;;;;;5058066;28;20024;-69
2021/06/19 14:26:56;;;;;;;9.55;2.00;;;;;;;;;;5050195;28;20025;-69
2021/06/19 14:29:21;;;;;;;16.63;3.38;;;;;;;;;;5061509;28;20081;-69
2021/06/19 14:31:47;;;;;;;7.13;1.73;;;;;;;;;;5070607;28;20429;-69
2021/06/19 14:34:12;;;;;;;9.93;1.63;;;;;;;;;;5069395;28;20263;-69
2021/06/19 14:36:37;;;;;;;7.50;1.60;;;;;;;;;;5071059;28;20094;-69
2021/06/19 14:39:02;;;;;;;2.23;1.70;;;;;;;;;;5072587;28;20028;-69
2021/06/19 14:41:28;;;;;;;3.45;1.50;;;;;;;;;;5064207;28;20025;-69